Time;durP1;ratioP1;P1;durP2;ratioP2;P2;SDS_P1;SDS_P2;PMS_P1;PMS_P2;Temp;Humidity;BMP_temperature;BMP_pressure;BME280_temperature;BME280_humidity;BME280_pressure;Samples;Min_cycle;Max_cycle;Signal;HPM_P1;HPM_P2
2022/10/03 00:00:07;;;;;;;0.53;0.53;;;;;;;;;;5053163;28;20198;-78
2022/10/03 00:02:43;;;;;;;0.60;0.60;;;;;;;;;;5052784;28;22048;-78
2022/10/03 00:05:24;;;;;;;0.70;0.70;;;;;;;;;;5052590;28;20202;-78
2022/10/03 00:08:08;;;;;;;0.70;0.70;;;;;;;;;;5052735;28;20194;-78
2022/10/03 00:10:42;;;;;;;0.63;0.63;;;;;;;;;;5052907;28;20225;-79
2022/10/03 00:13:20;;;;;;;0.70;0.70;;;;;;;;;;5052679;28;20704;-78
2022/10/03 00:15:54;;;;;;;0.70;0.70;;;;;;;;;;5052145;28;20251;-79
2022/10/03 00:18:41;;;;;;;0.70;0.70;;;;;;;;;;5052860;28;20271;-79
2022/10/03 00:21:20;;;;;;;0.87;0.87;;;;;;;;;;5052510;28;20202;-78
2022/10/03 00:23:52;;;;;;;0.60;0.60;;;;;;;;;;5052318;28;20654;-78
2022/10/03 00:26:29;;;;;;;0.60;0.60;;;;;;;;;;5052242;28;20225;-78
2022/10/03 00:29:05;;;;;;;0.93;0.83;;;;;;;;;;5052324;28;20209;-79
2022/10/03 00:31:43;;;;;;;1.47;0.97;;;;;;;;;;5052658;28;20197;-78
2022/10/03 00:34:19;;;;;;;0.63;0.63;;;;;;;;;;5052217;28;20308;-78
2022/10/03 00:36:51;;;;;;;0.67;0.67;;;;;;;;;;5051885;28;20197;-78
2022/10/03 00:39:36;;;;;;;0.60;0.60;;;;;;;;;;5052035;28;20217;-79
2022/10/03 00:42:45;;;;;;;0.87;0.87;;;;;;;;;;5052042;28;20298;-79
2022/10/03 00:45:55;;;;;;;0.67;0.67;;;;;;;;;;5017479;28;20198;-78
2022/10/03 00:48:47;;;;;;;0.87;0.87;;;;;;;;;;5051891;28;20300;-79
2022/10/03 00:51:26;;;;;;;0.70;0.70;;;;;;;;;;5052012;28;20213;-79
2022/10/03 00:54:07;;;;;;;0.57;0.57;;;;;;;;;;5052010;28;20201;-79
2022/10/03 00:56:56;;;;;;;0.60;0.60;;;;;;;;;;5051734;28;20714;-78
2022/10/03 00:59:43;;;;;;;1.00;1.00;;;;;;;;;;5051677;28;20300;-78
2022/10/03 01:02:25;;;;;;;0.90;0.90;;;;;;;;;;5052081;28;20217;-79
2022/10/03 01:04:57;;;;;;;0.97;0.97;;;;;;;;;;5051528;28;20712;-78
2022/10/03 01:07:38;;;;;;;0.87;0.87;;;;;;;;;;5051463;28;20627;-79
2022/10/03 01:10:13;;;;;;;0.70;0.70;;;;;;;;;;5051619;28;20204;-79
2022/10/03 01:13:02;;;;;;;0.50;0.50;;;;;;;;;;5051646;28;20212;-78
2022/10/03 01:15:37;;;;;;;0.70;0.70;;;;;;;;;;5051259;28;20711;-79
2022/10/03 01:18:27;;;;;;;0.70;0.70;;;;;;;;;;5051416;28;20622;-78
2022/10/03 01:21:01;;;;;;;0.50;0.50;;;;;;;;;;5051383;28;20213;-78
2022/10/03 01:24:09;;;;;;;0.80;0.80;;;;;;;;;;5038481;28;20228;-78
2022/10/03 01:26:52;;;;;;;0.80;0.80;;;;;;;;;;5012239;28;20205;-78
2022/10/03 01:32:17;;;;;;;0.60;0.60;;;;;;;;;;5050613;28;20232;-78
2022/10/03 01:34:48;;;;;;;0.53;0.53;;;;;;;;;;5051324;28;20210;-79
2022/10/03 01:37:21;;;;;;;0.60;0.60;;;;;;;;;;5051071;28;20285;-79
2022/10/03 01:39:52;;;;;;;0.70;0.70;;;;;;;;;;5050579;28;20198;-78
2022/10/03 01:42:32;;;;;;;1.93;1.83;;;;;;;;;;5050879;28;20295;-78
2022/10/03 01:45:12;;;;;;;0.67;0.67;;;;;;;;;;5051006;28;20652;-78
2022/10/03 01:47:48;;;;;;;0.80;0.80;;;;;;;;;;5050544;28;20205;-79
2022/10/03 01:50:22;;;;;;;0.70;0.70;;;;;;;;;;5050901;28;20204;-79
2022/10/03 01:52:54;;;;;;;1.47;0.70;;;;;;;;;;5051150;28;20620;-78
2022/10/03 01:55:23;;;;;;;0.70;0.70;;;;;;;;;;5050627;28;20202;-79
2022/10/03 01:57:59;;;;;;;0.70;0.70;;;;;;;;;;5050333;28;20292;-78
2022/10/03 02:00:34;;;;;;;0.60;0.60;;;;;;;;;;5050464;28;20288;-78
2022/10/03 02:03:06;;;;;;;0.50;0.50;;;;;;;;;;5050702;28;20228;-79
2022/10/03 02:05:41;;;;;;;0.70;0.70;;;;;;;;;;5050690;28;20212;-78
2022/10/03 02:08:22;;;;;;;0.60;0.60;;;;;;;;;;5050440;28;20198;-79
2022/10/03 02:10:53;;;;;;;0.90;0.90;;;;;;;;;;5050329;28;20646;-78
2022/10/03 02:13:23;;;;;;;0.67;0.67;;;;;;;;;;5050918;28;20208;-78
2022/10/03 02:15:57;;;;;;;0.53;0.53;;;;;;;;;;5050223;28;20206;-79
2022/10/03 02:18:30;;;;;;;0.80;0.80;;;;;;;;;;5050537;28;20585;-79
2022/10/03 02:21:09;;;;;;;0.73;0.73;;;;;;;;;;5050122;28;20225;-78
2022/10/03 02:23:42;;;;;;;0.80;0.80;;;;;;;;;;5050422;28;20711;-78
2022/10/03 02:26:46;;;;;;;0.70;0.70;;;;;;;;;;5050172;28;20207;-78
2022/10/03 02:29:28;;;;;;;0.57;0.57;;;;;;;;;;5050032;28;20205;-79
2022/10/03 02:32:14;;;;;;;1.43;1.33;;;;;;;;;;5037225;28;20193;-78
2022/10/03 02:35:06;;;;;;;0.60;0.60;;;;;;;;;;5050806;28;20212;-79
2022/10/03 02:37:51;;;;;;;1.50;1.43;;;;;;;;;;5049774;28;20198;-78
2022/10/03 02:40:48;;;;;;;2.97;2.47;;;;;;;;;;5050172;28;20257;-78
2022/10/03 02:43:51;;;;;;;2.20;2.00;;;;;;;;;;5050582;28;20236;-78
2022/10/03 02:46:47;;;;;;;2.60;2.07;;;;;;;;;;5022241;28;20692;-78
2022/10/03 02:49:56;;;;;;;1.60;1.50;;;;;;;;;;5039322;28;20207;-78
2022/10/03 02:53:04;;;;;;;1.70;0.80;;;;;;;;;;4985637;28;20209;-79
2022/10/03 02:56:04;;;;;;;2.20;1.63;;;;;;;;;;4991763;28;20207;-78
2022/10/03 02:58:42;;;;;;;0.63;0.63;;;;;;;;;;5030469;28;20202;-78
2022/10/03 03:01:48;;;;;;;0.60;0.60;;;;;;;;;;5050160;28;20389;-78
2022/10/03 03:04:41;;;;;;;0.80;0.80;;;;;;;;;;5049732;28;20619;-78
2022/10/03 03:07:26;;;;;;;0.60;0.60;;;;;;;;;;5050201;28;20210;-78
2022/10/03 03:10:14;;;;;;;0.53;0.53;;;;;;;;;;5051343;28;20201;-78
2022/10/03 03:13:10;;;;;;;1.97;0.90;;;;;;;;;;5053766;28;20637;-79
2022/10/03 03:15:55;;;;;;;0.77;0.77;;;;;;;;;;5052502;28;20194;-78
2022/10/03 03:18:30;;;;;;;0.80;0.80;;;;;;;;;;5044268;28;20284;-78
2022/10/03 03:21:09;;;;;;;0.90;0.90;;;;;;;;;;5053261;28;20638;-78
2022/10/03 03:23:52;;;;;;;0.73;0.73;;;;;;;;;;5051973;28;20218;-77
2022/10/03 03:26:30;;;;;;;0.80;0.80;;;;;;;;;;5053745;28;20212;-78
2022/10/03 03:29:05;;;;;;;0.73;0.73;;;;;;;;;;5040403;28;20206;-78
2022/10/03 03:31:37;;;;;;;0.60;0.60;;;;;;;;;;5053250;28;20660;-78
2022/10/03 03:34:09;;;;;;;0.50;0.50;;;;;;;;;;5053371;28;20208;-78
2022/10/03 03:36:40;;;;;;;0.67;0.67;;;;;;;;;;5053655;28;20206;-78
2022/10/03 03:39:17;;;;;;;0.90;0.90;;;;;;;;;;5052878;28;20194;-78
2022/10/03 03:41:59;;;;;;;0.80;0.80;;;;;;;;;;5053788;28;20197;-78
2022/10/03 03:44:47;;;;;;;0.90;0.90;;;;;;;;;;5033829;28;20232;-78
2022/10/03 03:47:35;;;;;;;0.90;0.90;;;;;;;;;;5045658;28;20217;-78
2022/10/03 03:50:16;;;;;;;0.87;0.87;;;;;;;;;;5052633;28;20220;-79
2022/10/03 03:52:56;;;;;;;0.93;0.93;;;;;;;;;;5052148;28;20251;-78
2022/10/03 03:55:39;;;;;;;0.70;0.70;;;;;;;;;;5052403;28;20198;-79
2022/10/03 03:58:18;;;;;;;0.97;0.97;;;;;;;;;;5053114;28;20288;-78
2022/10/03 04:00:58;;;;;;;2.80;1.10;;;;;;;;;;5052832;28;20201;-78
2022/10/03 04:03:31;;;;;;;1.10;1.10;;;;;;;;;;5052842;28;20229;-78
2022/10/03 04:06:10;;;;;;;0.80;0.80;;;;;;;;;;5052673;28;20680;-78
2022/10/03 04:09:00;;;;;;;0.90;0.90;;;;;;;;;;5052898;28;20206;-78
2022/10/03 04:11:36;;;;;;;0.90;0.90;;;;;;;;;;5052065;28;20224;-78
2022/10/03 04:14:30;;;;;;;0.80;0.80;;;;;;;;;;5052618;28;20725;-78
2022/10/03 04:20:11;;;;;;;0.80;0.80;;;;;;;;;;5038081;28;20246;-78
2022/10/03 04:23:05;;;;;;;0.80;0.80;;;;;;;;;;5052683;28;20213;-78
2022/10/03 04:25:45;;;;;;;0.80;0.80;;;;;;;;;;5052346;28;20198;-78
2022/10/03 04:28:43;;;;;;;1.73;0.97;;;;;;;;;;5052002;28;20208;-78
2022/10/03 04:31:25;;;;;;;1.00;1.00;;;;;;;;;;5052340;28;20210;-78
2022/10/03 04:34:06;;;;;;;1.00;1.00;;;;;;;;;;5047520;28;20726;-78
2022/10/03 04:36:57;;;;;;;1.47;1.37;;;;;;;;;;5051589;28;20205;-78
2022/10/03 04:39:30;;;;;;;0.83;0.83;;;;;;;;;;5040963;28;20202;-78
2022/10/03 04:42:03;;;;;;;1.43;1.33;;;;;;;;;;5052238;28;20207;-78
2022/10/03 04:44:48;;;;;;;1.07;1.07;;;;;;;;;;5052192;28;20228;-78
2022/10/03 04:47:20;;;;;;;1.20;1.20;;;;;;;;;;5051960;28;20202;-77
2022/10/03 04:49:52;;;;;;;0.80;0.80;;;;;;;;;;5052154;28;20237;-77
2022/10/03 04:52:24;;;;;;;0.93;0.93;;;;;;;;;;5051885;28;20588;-78
2022/10/03 04:54:56;;;;;;;0.70;0.70;;;;;;;;;;5051630;28;20197;-77
2022/10/03 04:57:31;;;;;;;0.60;0.60;;;;;;;;;;5051540;28;20672;-78
2022/10/03 05:00:07;;;;;;;0.63;0.63;;;;;;;;;;5051949;28;20212;-77
2022/10/03 05:02:47;;;;;;;0.93;0.87;;;;;;;;;;5051739;28;20267;-78
2022/10/03 05:05:24;;;;;;;0.60;0.60;;;;;;;;;;5051646;28;20225;-78
2022/10/03 05:07:58;;;;;;;0.87;0.87;;;;;;;;;;5051570;28;20215;-78
2022/10/03 05:10:44;;;;;;;0.40;0.40;;;;;;;;;;5051447;28;20198;-78
2022/10/03 05:13:16;;;;;;;1.23;1.13;;;;;;;;;;5051818;28;20287;-78
2022/10/03 05:15:51;;;;;;;1.00;1.00;;;;;;;;;;5050320;28;20580;-78
2022/10/03 05:18:22;;;;;;;0.50;0.50;;;;;;;;;;5050843;28;20207;-78
2022/10/03 05:20:54;;;;;;;0.83;0.70;;;;;;;;;;5051283;28;20205;-78
2022/10/03 05:23:41;;;;;;;1.23;0.70;;;;;;;;;;5051672;28;20276;-77
2022/10/03 05:26:18;;;;;;;0.50;0.50;;;;;;;;;;5051094;28;20198;-77
2022/10/03 05:28:50;;;;;;;0.60;0.60;;;;;;;;;;5050973;28;20197;-78
2022/10/03 05:31:27;;;;;;;0.60;0.60;;;;;;;;;;5051249;28;20296;-77
2022/10/03 05:34:02;;;;;;;0.73;0.70;;;;;;;;;;5050663;28;20323;-77
2022/10/03 05:36:33;;;;;;;0.67;0.67;;;;;;;;;;5050914;28;20662;-78
2022/10/03 05:39:33;;;;;;;0.63;0.63;;;;;;;;;;5050745;28;20600;-78
2022/10/03 05:42:23;;;;;;;0.83;0.83;;;;;;;;;;5051529;28;20209;-77
2022/10/03 05:44:57;;;;;;;0.97;0.97;;;;;;;;;;5039171;28;20222;-77
2022/10/03 05:47:47;;;;;;;0.80;0.80;;;;;;;;;;5050548;28;20680;-78
2022/10/03 05:50:42;;;;;;;0.60;0.60;;;;;;;;;;5051017;28;20193;-77
2022/10/03 05:53:24;;;;;;;0.57;0.57;;;;;;;;;;5037812;28;20201;-77
2022/10/03 05:56:05;;;;;;;0.90;0.90;;;;;;;;;;5050384;28;20205;-77
2022/10/03 05:59:05;;;;;;;0.80;0.80;;;;;;;;;;5050578;28;20293;-77
2022/10/03 06:02:16;;;;;;;0.70;0.70;;;;;;;;;;5050771;28;20284;-77
2022/10/03 06:05:26;;;;;;;0.97;0.97;;;;;;;;;;5026089;28;20711;-78
2022/10/03 06:08:18;;;;;;;0.90;0.90;;;;;;;;;;4988928;28;20200;-77
2022/10/03 06:10:50;;;;;;;0.93;0.93;;;;;;;;;;4989055;28;20208;-77
2022/10/03 06:13:22;;;;;;;0.90;0.90;;;;;;;;;;5023282;28;20232;-77
2022/10/03 06:15:54;;;;;;;0.80;0.80;;;;;;;;;;5050238;28;20617;-77
2022/10/03 06:18:54;;;;;;;0.80;0.80;;;;;;;;;;5037351;28;20202;-77
2022/10/03 06:21:45;;;;;;;0.90;0.90;;;;;;;;;;5050427;28;20213;-77
2022/10/03 06:24:54;;;;;;;1.60;1.50;;;;;;;;;;5050340;28;20256;-77
2022/10/03 06:27:51;;;;;;;0.80;0.80;;;;;;;;;;5039868;28;20202;-78
2022/10/03 06:30:21;;;;;;;0.90;0.90;;;;;;;;;;5037628;28;20203;-77
2022/10/03 06:33:32;;;;;;;5.17;4.70;;;;;;;;;;5050675;28;20654;-77
2022/10/03 06:36:15;;;;;;;1.50;1.40;;;;;;;;;;5050353;28;20202;-77
2022/10/03 06:39:08;;;;;;;0.87;0.87;;;;;;;;;;5036488;28;20202;-77
2022/10/03 06:42:12;;;;;;;1.20;1.10;;;;;;;;;;5049966;28;20703;-77
2022/10/03 06:45:32;;;;;;;2.10;2.00;;;;;;;;;;5051206;28;20776;-77
2022/10/03 06:48:12;;;;;;;1.10;1.10;;;;;;;;;;4992592;28;20212;-77
2022/10/03 06:50:53;;;;;;;0.60;0.60;;;;;;;;;;5034609;28;20201;-77
2022/10/03 06:53:50;;;;;;;0.60;0.60;;;;;;;;;;5054067;28;20724;-77
2022/10/03 06:56:45;;;;;;;0.60;0.60;;;;;;;;;;5053823;28;20203;-77
2022/10/03 07:03:02;;;;;;;0.73;0.73;;;;;;;;;;5053861;28;20609;-77
2022/10/03 07:05:59;;;;;;;0.80;0.80;;;;;;;;;;5053998;28;20292;-77
2022/10/03 07:08:53;;;;;;;0.80;0.80;;;;;;;;;;5049588;28;20299;-77
2022/10/03 07:12:07;;;;;;;0.70;0.70;;;;;;;;;;5053686;28;20781;-77
2022/10/03 07:15:10;;;;;;;0.80;0.80;;;;;;;;;;5035032;28;20203;-77
2022/10/03 07:18:05;;;;;;;0.80;0.80;;;;;;;;;;5053346;28;20204;-77
2022/10/03 07:21:02;;;;;;;0.60;0.60;;;;;;;;;;5053741;28;20287;-77
2022/10/03 07:23:53;;;;;;;0.87;0.87;;;;;;;;;;5023713;28;20209;-77
2022/10/03 07:27:02;;;;;;;0.87;0.87;;;;;;;;;;5053556;28;20202;-78
2022/10/03 07:29:40;;;;;;;1.07;1.00;;;;;;;;;;5053523;28;20613;-77
2022/10/03 07:32:19;;;;;;;1.60;1.17;;;;;;;;;;5053501;28;20252;-78
2022/10/03 07:35:22;;;;;;;0.70;0.70;;;;;;;;;;5053469;28;20216;-78
2022/10/03 07:41:31;;;;;;;0.60;0.60;;;;;;;;;;5011656;28;20673;-78
2022/10/03 07:44:16;;;;;;;0.97;0.90;;;;;;;;;;5040851;28;20311;-78
2022/10/03 07:47:26;;;;;;;0.70;0.70;;;;;;;;;;5053152;28;20237;-78
2022/10/03 07:50:10;;;;;;;0.83;0.83;;;;;;;;;;4995414;28;20690;-78
2022/10/03 07:52:56;;;;;;;1.37;0.97;;;;;;;;;;5052949;28;20222;-78
2022/10/03 07:55:28;;;;;;;0.73;0.73;;;;;;;;;;5051946;28;20229;-77
2022/10/03 07:58:18;;;;;;;0.77;0.77;;;;;;;;;;5053131;28;20656;-78
2022/10/03 08:00:54;;;;;;;1.10;1.00;;;;;;;;;;5052488;28;20201;-78
2022/10/03 08:04:03;;;;;;;0.70;0.70;;;;;;;;;;5053201;28;20636;-77
2022/10/03 08:06:37;;;;;;;0.60;0.60;;;;;;;;;;5040248;28;20642;-77
2022/10/03 08:09:34;;;;;;;1.20;1.20;;;;;;;;;;5053049;28;20213;-78
2022/10/03 08:12:40;;;;;;;0.80;0.80;;;;;;;;;;5052998;28;20213;-77
2022/10/03 08:15:10;;;;;;;1.00;1.00;;;;;;;;;;5052790;28;20201;-78
2022/10/03 08:18:34;;;;;;;1.23;1.20;;;;;;;;;;5052465;28;20210;-78
2022/10/03 08:21:01;;;;;;;0.80;0.80;;;;;;;;;;4990830;28;20207;-77
2022/10/03 08:23:56;;;;;;;0.90;0.90;;;;;;;;;;5030048;28;20298;-77
2022/10/03 08:26:34;;;;;;;1.10;1.00;;;;;;;;;;5052209;28;20208;-77
2022/10/03 08:29:15;;;;;;;0.97;0.97;;;;;;;;;;5052673;28;20197;-77
2022/10/03 08:32:06;;;;;;;1.03;1.03;;;;;;;;;;5052168;28;20286;-77
2022/10/03 08:34:59;;;;;;;1.10;1.10;;;;;;;;;;5052444;28;20593;-77
2022/10/03 08:38:07;;;;;;;1.00;1.00;;;;;;;;;;5036521;28;20220;-77
2022/10/03 08:41:12;;;;;;;1.30;1.20;;;;;;;;;;5039585;28;20323;-78
2022/10/03 08:44:23;;;;;;;1.10;1.10;;;;;;;;;;5019989;28;20270;-78
2022/10/03 08:47:06;;;;;;;1.47;1.37;;;;;;;;;;5051192;28;20629;-77
2022/10/03 08:50:08;;;;;;;1.50;1.40;;;;;;;;;;5052074;28;20213;-77
2022/10/03 08:52:47;;;;;;;3.90;1.30;;;;;;;;;;5039528;28;20629;-77
2022/10/03 08:55:48;;;;;;;1.00;1.00;;;;;;;;;;5051868;28;20693;-77
2022/10/03 08:58:36;;;;;;;1.20;1.20;;;;;;;;;;5051662;28;20197;-77
2022/10/03 09:01:17;;;;;;;0.90;0.90;;;;;;;;;;5051483;28;20680;-77
2022/10/03 09:04:21;;;;;;;1.33;1.00;;;;;;;;;;5051843;28;20210;-77
2022/10/03 09:07:07;;;;;;;0.80;0.80;;;;;;;;;;5050933;28;20209;-77
2022/10/03 09:10:06;;;;;;;1.20;1.20;;;;;;;;;;5051212;28;20205;-78
2022/10/03 09:12:59;;;;;;;1.03;1.03;;;;;;;;;;5051648;28;20270;-77
2022/10/03 09:16:01;;;;;;;1.13;1.10;;;;;;;;;;5018565;28;20221;-77
2022/10/03 09:18:45;;;;;;;0.87;0.87;;;;;;;;;;5049891;28;20213;-77
2022/10/03 09:21:34;;;;;;;1.20;1.20;;;;;;;;;;5051328;28;20209;-78
2022/10/03 09:24:27;;;;;;;3.70;2.77;;;;;;;;;;5051289;28;20209;-78
2022/10/03 09:27:13;;;;;;;4.77;3.63;;;;;;;;;;5038714;28;20209;-77
2022/10/03 09:30:17;;;;;;;2.37;1.90;;;;;;;;;;5050643;28;20202;-78
2022/10/03 09:33:16;;;;;;;1.10;1.10;;;;;;;;;;5051163;28;20237;-77
2022/10/03 09:36:10;;;;;;;1.27;1.17;;;;;;;;;;5023810;28;20297;-77
2022/10/03 09:38:51;;;;;;;1.30;1.30;;;;;;;;;;5050914;28;20263;-78
2022/10/03 09:41:42;;;;;;;2.40;2.00;;;;;;;;;;5050824;28;20585;-77
2022/10/03 09:44:32;;;;;;;1.83;1.73;;;;;;;;;;5050939;28;20202;-78
2022/10/03 09:47:28;;;;;;;1.00;0.90;;;;;;;;;;5050843;28;20289;-77
2022/10/03 09:50:28;;;;;;;1.97;1.87;;;;;;;;;;5021779;28;20264;-77
2022/10/03 09:53:18;;;;;;;9.23;5.33;;;;;;;;;;5050789;28;20293;-78
2022/10/03 09:56:04;;;;;;;3.93;2.53;;;;;;;;;;5050932;28;20761;-77
2022/10/03 09:58:57;;;;;;;2.00;1.90;;;;;;;;;;5051147;28;20198;-77
2022/10/03 10:01:29;;;;;;;0.70;0.70;;;;;;;;;;5050535;28;20205;-77
2022/10/03 10:04:29;;;;;;;1.47;0.90;;;;;;;;;;5050463;28;20218;-77
2022/10/03 10:07:18;;;;;;;1.10;1.10;;;;;;;;;;5033199;28;20207;-79
2022/10/03 10:09:58;;;;;;;9.37;5.60;;;;;;;;;;5050431;28;20207;-80
2022/10/03 10:13:09;;;;;;;4.57;3.40;;;;;;;;;;5050629;28;20647;-80
2022/10/03 10:16:01;;;;;;;1.20;1.10;;;;;;;;;;5045853;28;20211;-80
2022/10/03 10:18:57;;;;;;;1.00;1.00;;;;;;;;;;5037764;28;20209;-80
2022/10/03 10:21:54;;;;;;;1.97;1.87;;;;;;;;;;5050444;28;20590;-81
2022/10/03 10:24:54;;;;;;;1.13;1.03;;;;;;;;;;5050455;28;20211;-81
2022/10/03 10:28:08;;;;;;;1.23;1.13;;;;;;;;;;5050592;28;20741;-81
2022/10/03 10:31:02;;;;;;;0.50;0.50;;;;;;;;;;5027035;28;20589;-81
2022/10/03 10:34:05;;;;;;;0.87;0.87;;;;;;;;;;5049499;28;20237;-82
2022/10/03 10:37:17;;;;;;;0.70;0.70;;;;;;;;;;5050618;28;20585;-83
2022/10/03 10:40:08;;;;;;;0.70;0.70;;;;;;;;;;5050266;28;20678;-83
2022/10/03 10:43:09;;;;;;;0.50;0.50;;;;;;;;;;5052100;28;20208;-85
2022/10/03 10:45:47;;;;;;;0.60;0.60;;;;;;;;;;5040039;28;20227;-84
2022/10/03 10:48:49;;;;;;;0.30;0.30;;;;;;;;;;5052735;28;20207;-84
2022/10/03 10:51:41;;;;;;;2.10;1.23;;;;;;;;;;5050805;28;20213;-85
2022/10/03 10:55:02;;;;;;;0.80;0.80;;;;;;;;;;5050157;28;20201;-83
2022/10/03 10:58:17;;;;;;;0.60;0.60;;;;;;;;;;5003491;28;20359;-83
2022/10/03 11:00:59;;;;;;;0.83;0.83;;;;;;;;;;5007699;28;20207;-82
2022/10/03 11:04:07;;;;;;;1.87;1.00;;;;;;;;;;5044631;28;20598;-83
2022/10/03 11:07:03;;;;;;;3.73;3.37;;;;;;;;;;5038081;28;20229;-81
2022/10/03 11:10:00;;;;;;;1.20;1.20;;;;;;;;;;5049950;28;20202;-81
2022/10/03 11:13:05;;;;;;;1.10;1.03;;;;;;;;;;5049852;28;20206;-82
2022/10/03 11:16:14;;;;;;;0.90;0.90;;;;;;;;;;5008043;28;20207;-82
2022/10/03 11:19:18;;;;;;;0.90;0.90;;;;;;;;;;5039221;28;20690;-81
2022/10/03 11:22:22;;;;;;;1.87;0.97;;;;;;;;;;5049644;28;20205;-82
2022/10/03 11:25:25;;;;;;;0.60;0.60;;;;;;;;;;5049434;28;20672;-79
2022/10/03 11:28:33;;;;;;;0.57;0.57;;;;;;;;;;5050014;28;20204;-79
2022/10/03 11:31:26;;;;;;;1.10;0.80;;;;;;;;;;5051800;28;20202;-80
2022/10/03 11:34:47;;;;;;;0.67;0.67;;;;;;;;;;5041983;28;20611;-78
2022/10/03 11:37:27;;;;;;;0.77;0.70;;;;;;;;;;5042152;28;20205;-80
2022/10/03 11:40:04;;;;;;;0.70;0.70;;;;;;;;;;5053404;28;20209;-79
2022/10/03 11:42:49;;;;;;;0.70;0.70;;;;;;;;;;5053328;28;20676;-80
2022/10/03 11:45:24;;;;;;;0.63;0.63;;;;;;;;;;5053240;28;20230;-80
2022/10/03 11:48:00;;;;;;;0.70;0.70;;;;;;;;;;5053641;28;20225;-79
2022/10/03 11:50:43;;;;;;;0.70;0.70;;;;;;;;;;5053288;28;20202;-79
2022/10/03 11:53:34;;;;;;;0.53;0.53;;;;;;;;;;5053644;28;20201;-79
2022/10/03 11:56:12;;;;;;;0.50;0.50;;;;;;;;;;5053317;28;20656;-79
2022/10/03 11:58:54;;;;;;;0.70;0.70;;;;;;;;;;5053162;28;20285;-79
2022/10/03 12:01:32;;;;;;;0.57;0.57;;;;;;;;;;5053320;28;20595;-79
2022/10/03 12:04:07;;;;;;;0.43;0.43;;;;;;;;;;5052832;28;20205;-77
2022/10/03 12:09:54;;;;;;;0.53;0.53;;;;;;;;;;5052658;28;20208;-77
2022/10/03 12:12:29;;;;;;;0.67;0.67;;;;;;;;;;5052809;28;20761;-77
2022/10/03 12:15:01;;;;;;;0.53;0.53;;;;;;;;;;5039202;28;20276;-78
2022/10/03 12:17:31;;;;;;;0.60;0.60;;;;;;;;;;5052683;28;20747;-77
2022/10/03 12:20:04;;;;;;;1.13;1.10;;;;;;;;;;5052996;28;20213;-77
2022/10/03 12:22:41;;;;;;;0.80;0.80;;;;;;;;;;5052748;28;20300;-76
2022/10/03 12:25:18;;;;;;;0.73;0.73;;;;;;;;;;5039037;28;20200;-80
2022/10/03 12:27:55;;;;;;;0.70;0.70;;;;;;;;;;5052219;28;20213;-77
2022/10/03 12:30:22;;;;;;;0.80;0.80;;;;;;;;;;5052498;28;20592;-77
2022/10/03 12:33:05;;;;;;;0.60;0.60;;;;;;;;;;5052525;28;20248;-76
2022/10/03 12:35:39;;;;;;;0.50;0.50;;;;;;;;;;5052301;28;20206;-75
2022/10/03 12:38:18;;;;;;;0.73;0.73;;;;;;;;;;5052128;28;20263;-76
2022/10/03 12:40:52;;;;;;;0.70;0.70;;;;;;;;;;5052206;28;20570;-76
2022/10/03 12:43:33;;;;;;;0.50;0.50;;;;;;;;;;5052425;28;20650;-78
2022/10/03 12:46:02;;;;;;;0.63;0.63;;;;;;;;;;5052141;28;20312;-77
2022/10/03 12:48:42;;;;;;;0.50;0.50;;;;;;;;;;5051833;28;20223;-76
2022/10/03 12:51:19;;;;;;;0.60;0.60;;;;;;;;;;5052035;28;20201;-77
2022/10/03 12:53:54;;;;;;;0.60;0.60;;;;;;;;;;5051772;28;20204;-76
2022/10/03 12:56:30;;;;;;;0.70;0.70;;;;;;;;;;5052124;28;20634;-76
2022/10/03 12:59:10;;;;;;;0.60;0.60;;;;;;;;;;5051495;28;20212;-77
2022/10/03 13:01:48;;;;;;;0.40;0.40;;;;;;;;;;5052161;28;20705;-76
2022/10/03 13:04:25;;;;;;;0.40;0.40;;;;;;;;;;5051364;28;20270;-76
2022/10/03 13:07:01;;;;;;;0.40;0.40;;;;;;;;;;5051937;28;20235;-76
2022/10/03 13:09:39;;;;;;;0.60;0.60;;;;;;;;;;5051415;28;20296;-77
2022/10/03 13:12:15;;;;;;;0.47;0.47;;;;;;;;;;5052164;28;20562;-76
2022/10/03 13:15:18;;;;;;;0.60;0.60;;;;;;;;;;5051067;28;20209;-76
2022/10/03 13:17:50;;;;;;;0.40;0.40;;;;;;;;;;5049258;28;20219;-76
2022/10/03 13:20:24;;;;;;;0.60;0.60;;;;;;;;;;5051729;28;20217;-76
2022/10/03 13:22:55;;;;;;;0.37;0.37;;;;;;;;;;5051604;28;20208;-76
2022/10/03 13:25:24;;;;;;;0.40;0.40;;;;;;;;;;5050894;28;20202;-77
2022/10/03 13:27:58;;;;;;;0.57;0.57;;;;;;;;;;5051345;28;20213;-77
2022/10/03 13:30:27;;;;;;;0.40;0.40;;;;;;;;;;5051311;28;20209;-76
2022/10/03 13:33:00;;;;;;;0.60;0.60;;;;;;;;;;5051384;28;20683;-76
2022/10/03 13:38:44;;;;;;;0.43;0.43;;;;;;;;;;5051007;28;20351;-77
2022/10/03 13:41:25;;;;;;;0.60;0.60;;;;;;;;;;5049035;28;20281;-77
2022/10/03 13:43:59;;;;;;;0.70;0.70;;;;;;;;;;5051096;28;20198;-77
2022/10/03 13:46:31;;;;;;;0.40;0.40;;;;;;;;;;5050763;28;20308;-76
2022/10/03 13:49:00;;;;;;;0.67;0.67;;;;;;;;;;5050733;28;20201;-76
2022/10/03 13:51:34;;;;;;;0.70;0.70;;;;;;;;;;5050892;28;20212;-77
2022/10/03 13:54:03;;;;;;;1.03;1.00;;;;;;;;;;5036823;28;20206;-76
2022/10/03 13:56:43;;;;;;;0.67;0.67;;;;;;;;;;5050748;28;20240;-77
2022/10/03 13:59:19;;;;;;;0.47;0.47;;;;;;;;;;5050931;28;20205;-76
2022/10/03 14:01:52;;;;;;;0.70;0.70;;;;;;;;;;5050945;28;20212;-77
2022/10/03 14:04:40;;;;;;;0.53;0.53;;;;;;;;;;5050685;28;20570;-76
2022/10/03 14:07:13;;;;;;;0.67;0.67;;;;;;;;;;5050696;28;20229;-77
2022/10/03 14:10:09;;;;;;;0.67;0.67;;;;;;;;;;5050119;28;20202;-77
2022/10/03 14:12:45;;;;;;;0.60;0.60;;;;;;;;;;5049462;28;20648;-78
2022/10/03 14:15:27;;;;;;;0.63;0.63;;;;;;;;;;5050520;28;20197;-77
2022/10/03 14:18:00;;;;;;;0.60;0.60;;;;;;;;;;5050364;28;20202;-78
2022/10/03 14:20:31;;;;;;;0.60;0.60;;;;;;;;;;5050539;28;20582;-77
2022/10/03 14:23:18;;;;;;;0.57;0.57;;;;;;;;;;5050747;28;20201;-76
2022/10/03 14:25:48;;;;;;;0.80;0.80;;;;;;;;;;5050490;28;20213;-77
2022/10/03 14:28:20;;;;;;;0.97;0.97;;;;;;;;;;5050794;28;20253;-77
2022/10/03 14:30:56;;;;;;;0.43;0.43;;;;;;;;;;5050406;28;20568;-77
2022/10/03 14:33:27;;;;;;;0.40;0.40;;;;;;;;;;5050999;28;20229;-76
2022/10/03 14:36:07;;;;;;;0.60;0.60;;;;;;;;;;5049996;28;20216;-77
2022/10/03 14:39:00;;;;;;;0.60;0.60;;;;;;;;;;5050576;28;20194;-76
2022/10/03 14:41:47;;;;;;;0.53;0.53;;;;;;;;;;5050620;28;20198;-76
2022/10/03 14:44:17;;;;;;;0.77;0.77;;;;;;;;;;5049826;28;20208;-77
2022/10/03 14:46:48;;;;;;;0.77;0.77;;;;;;;;;;5050229;28;20236;-77
2022/10/03 14:49:20;;;;;;;0.70;0.70;;;;;;;;;;5050416;28;20202;-79
2022/10/03 14:51:53;;;;;;;0.97;0.97;;;;;;;;;;5050218;28;20240;-76
2022/10/03 14:54:21;;;;;;;0.80;0.80;;;;;;;;;;5050505;28;20591;-77
2022/10/03 14:56:50;;;;;;;0.93;0.90;;;;;;;;;;5050194;28;20214;-76
2022/10/03 14:59:19;;;;;;;1.50;1.07;;;;;;;;;;5049925;28;20244;-76
2022/10/03 15:01:50;;;;;;;0.77;0.77;;;;;;;;;;5049837;28;20602;-76
2022/10/03 15:04:25;;;;;;;0.80;0.80;;;;;;;;;;5049820;28;20209;-77
2022/10/03 15:06:55;;;;;;;0.83;0.83;;;;;;;;;;5053265;28;20235;-77
2022/10/03 15:09:25;;;;;;;0.80;0.80;;;;;;;;;;5053898;28;20206;-78
2022/10/03 15:11:58;;;;;;;1.03;1.03;;;;;;;;;;5053862;28;20229;-77
2022/10/03 15:14:26;;;;;;;0.50;0.50;;;;;;;;;;5053493;28;20266;-77
2022/10/03 15:16:54;;;;;;;0.70;0.70;;;;;;;;;;5054144;28;20205;-77
2022/10/03 15:19:27;;;;;;;0.60;0.60;;;;;;;;;;5053539;28;20209;-76
2022/10/03 15:21:58;;;;;;;0.70;0.70;;;;;;;;;;5053978;28;20197;-76
2022/10/03 15:24:28;;;;;;;0.83;0.83;;;;;;;;;;5053544;28;20213;-77
2022/10/03 15:27:00;;;;;;;0.70;0.70;;;;;;;;;;5053427;28;20708;-77
2022/10/03 15:29:28;;;;;;;0.40;0.40;;;;;;;;;;5053789;28;20215;-78
2022/10/03 15:31:56;;;;;;;0.70;0.70;;;;;;;;;;5053172;28;20629;-76
2022/10/03 15:34:26;;;;;;;0.60;0.60;;;;;;;;;;5053410;28;20255;-76
2022/10/03 15:36:57;;;;;;;1.07;0.97;;;;;;;;;;5053421;28;20283;-77
2022/10/03 15:39:26;;;;;;;1.00;1.00;;;;;;;;;;5053158;28;20212;-76
2022/10/03 15:41:55;;;;;;;0.70;0.70;;;;;;;;;;5053487;28;20254;-77
2022/10/03 15:44:27;;;;;;;0.50;0.50;;;;;;;;;;5052970;28;20201;-77
2022/10/03 15:46:57;;;;;;;0.70;0.70;;;;;;;;;;5053556;28;20298;-77
2022/10/03 15:49:26;;;;;;;0.50;0.50;;;;;;;;;;5053441;28;20198;-76
2022/10/03 15:51:54;;;;;;;0.70;0.70;;;;;;;;;;5052752;28;20237;-76
2022/10/03 15:54:26;;;;;;;1.00;1.00;;;;;;;;;;5052838;28;20206;-77
2022/10/03 15:56:55;;;;;;;0.90;0.90;;;;;;;;;;5053495;28;20264;-76
2022/10/03 15:59:26;;;;;;;0.77;0.77;;;;;;;;;;5052738;28;20216;-77
2022/10/03 16:01:54;;;;;;;0.73;0.73;;;;;;;;;;5052983;28;20224;-76
2022/10/03 16:04:24;;;;;;;0.97;0.80;;;;;;;;;;5052426;28;20681;-77
2022/10/03 16:07:01;;;;;;;0.90;0.90;;;;;;;;;;5053197;28;20234;-76
2022/10/03 16:09:33;;;;;;;0.73;0.73;;;;;;;;;;5052692;28;20752;-76
2022/10/03 16:12:14;;;;;;;0.80;0.80;;;;;;;;;;5052596;28;20751;-76
2022/10/03 16:14:44;;;;;;;0.63;0.63;;;;;;;;;;5052770;28;20208;-77
2022/10/03 16:17:16;;;;;;;0.87;0.87;;;;;;;;;;5052798;28;20220;-77
2022/10/03 16:19:52;;;;;;;0.80;0.80;;;;;;;;;;5052621;28;20563;-76
2022/10/03 16:22:23;;;;;;;0.50;0.50;;;;;;;;;;5052802;28;20229;-77
2022/10/03 16:25:01;;;;;;;0.80;0.80;;;;;;;;;;5052483;28;20285;-77
2022/10/03 16:27:31;;;;;;;0.60;0.60;;;;;;;;;;5052227;28;20229;-76
2022/10/03 16:30:14;;;;;;;0.67;0.67;;;;;;;;;;5052112;28;20600;-77
2022/10/03 16:32:46;;;;;;;0.70;0.70;;;;;;;;;;5053011;28;20742;-77
2022/10/03 16:35:24;;;;;;;0.73;0.73;;;;;;;;;;5052285;28;20201;-77
2022/10/03 16:37:51;;;;;;;0.70;0.70;;;;;;;;;;5052284;28;20208;-76